sensor_id;sensor_type;location;lat;lon;timestamp;temperature;humidity
6662;DHT22;3367;48.714;8.994;2022-09-30T00:00:55;7.90;1.00
6662;DHT22;3367;48.714;8.994;2022-09-30T00:03:22;7.90;1.00
6662;DHT22;3367;48.714;8.994;2022-09-30T00:05:55;7.90;1.00
6662;DHT22;3367;48.714;8.994;2022-09-30T00:08:22;8.00;1.00
6662;DHT22;3367;48.714;8.994;2022-09-30T00:10:59;7.90;1.00
6662;DHT22;3367;48.714;8.994;2022-09-30T00:13:26;7.90;1.00
6662;DHT22;3367;48.714;8.994;2022-09-30T00:15:53;8.00;1.00
6662;DHT22;3367;48.714;8.994;2022-09-30T00:18:19;8.00;1.00
6662;DHT22;3367;48.714;8.994;2022-09-30T00:20:46;8.00;1.00
6662;DHT22;3367;48.714;8.994;2022-09-30T00:23:13;8.10;1.00
6662;DHT22;3367;48.714;8.994;2022-09-30T00:25:40;8.10;1.00
6662;DHT22;3367;48.714;8.994;2022-09-30T00:28:08;8.10;1.00
6662;DHT22;3367;48.714;8.994;2022-09-30T00:30:35;8.10;1.00
6662;DHT22;3367;48.714;8.994;2022-09-30T00:33:02;8.10;1.00
6662;DHT22;3367;48.714;8.994;2022-09-30T00:35:28;8.10;1.00
6662;DHT22;3367;48.714;8.994;2022-09-30T00:37:55;8.10;1.00
6662;DHT22;3367;48.714;8.994;2022-09-30T00:40:22;8.20;1.00
6662;DHT22;3367;48.714;8.994;2022-09-30T00:42:49;8.20;1.00
6662;DHT22;3367;48.714;8.994;2022-09-30T00:45:17;8.10;1.00
6662;DHT22;3367;48.714;8.994;2022-09-30T00:47:49;8.10;1.00
6662;DHT22;3367;48.714;8.994;2022-09-30T00:50:25;8.20;1.00
6662;DHT22;3367;48.714;8.994;2022-09-30T00:52:58;8.10;99.90
6662;DHT22;3367;48.714;8.994;2022-09-30T00:55:31;8.10;99.90
6662;DHT22;3367;48.714;8.994;2022-09-30T00:58:00;8.10;99.90
6662;DHT22;3367;48.714;8.994;2022-09-30T01:00:29;8.00;99.90
6662;DHT22;3367;48.714;8.994;2022-09-30T01:02:56;8.10;99.90
6662;DHT22;3367;48.714;8.994;2022-09-30T01:05:25;8.20;1.00
6662;DHT22;3367;48.714;8.994;2022-09-30T01:07:54;8.20;99.90
6662;DHT22;3367;48.714;8.994;2022-09-30T01:10:22;8.20;1.00
6662;DHT22;3367;48.714;8.994;2022-09-30T01:12:49;8.20;1.00
6662;DHT22;3367;48.714;8.994;2022-09-30T01:15:16;8.20;1.00
6662;DHT22;3367;48.714;8.994;2022-09-30T01:17:49;8.20;1.00
6662;DHT22;3367;48.714;8.994;2022-09-30T01:20:34;8.20;1.00
6662;DHT22;3367;48.714;8.994;2022-09-30T01:23:22;8.30;1.00
6662;DHT22;3367;48.714;8.994;2022-09-30T01:26:15;8.20;99.90
6662;DHT22;3367;48.714;8.994;2022-09-30T01:29:07;8.30;1.00
6662;DHT22;3367;48.714;8.994;2022-09-30T01:31:48;8.30;99.90
6662;DHT22;3367;48.714;8.994;2022-09-30T01:34:27;8.20;1.00
6662;DHT22;3367;48.714;8.994;2022-09-30T01:37:07;8.20;1.00
6662;DHT22;3367;48.714;8.994;2022-09-30T01:39:42;8.20;1.00
6662;DHT22;3367;48.714;8.994;2022-09-30T01:42:20;8.20;1.00
6662;DHT22;3367;48.714;8.994;2022-09-30T01:44:54;8.40;1.00
6662;DHT22;3367;48.714;8.994;2022-09-30T01:47:31;8.20;1.00
6662;DHT22;3367;48.714;8.994;2022-09-30T01:50:01;8.20;1.00
6662;DHT22;3367;48.714;8.994;2022-09-30T01:52:33;8.20;1.00
6662;DHT22;3367;48.714;8.994;2022-09-30T01:55:06;8.40;1.00
6662;DHT22;3367;48.714;8.994;2022-09-30T01:57:42;8.20;1.00
6662;DHT22;3367;48.714;8.994;2022-09-30T02:00:12;8.20;1.00
6662;DHT22;3367;48.714;8.994;2022-09-30T02:02:45;8.10;1.00
6662;DHT22;3367;48.714;8.994;2022-09-30T02:08:40;8.10;1.00
6662;DHT22;3367;48.714;8.994;2022-09-30T02:11:12;8.10;1.00
6662;DHT22;3367;48.714;8.994;2022-09-30T02:13:43;8.10;45.70
6662;DHT22;3367;48.714;8.994;2022-09-30T02:16:14;8.10;96.60
6662;DHT22;3367;48.714;8.994;2022-09-30T02:18:47;8.10;49.50
6662;DHT22;3367;48.714;8.994;2022-09-30T02:21:20;8.00;46.00
6662;DHT22;3367;48.714;8.994;2022-09-30T02:23:51;7.90;99.90
6662;DHT22;3367;48.714;8.994;2022-09-30T02:26:22;7.90;99.90
6662;DHT22;3367;48.714;8.994;2022-09-30T02:28:53;7.90;99.90
6662;DHT22;3367;48.714;8.994;2022-09-30T02:31:23;7.90;99.90
6662;DHT22;3367;48.714;8.994;2022-09-30T02:33:56;7.90;99.90
6662;DHT22;3367;48.714;8.994;2022-09-30T02:36:28;7.80;99.90
6662;DHT22;3367;48.714;8.994;2022-09-30T02:38:59;7.80;99.90
6662;DHT22;3367;48.714;8.994;2022-09-30T02:41:29;7.70;1.00
6662;DHT22;3367;48.714;8.994;2022-09-30T02:44:00;7.70;1.00
6662;DHT22;3367;48.714;8.994;2022-09-30T02:46:35;7.70;1.00
6662;DHT22;3367;48.714;8.994;2022-09-30T02:49:18;7.70;1.00
6662;DHT22;3367;48.714;8.994;2022-09-30T02:52:06;7.70;1.00
6662;DHT22;3367;48.714;8.994;2022-09-30T02:54:46;7.80;1.00
6662;DHT22;3367;48.714;8.994;2022-09-30T02:57:18;7.80;1.00
6662;DHT22;3367;48.714;8.994;2022-09-30T02:59:48;7.80;1.00
6662;DHT22;3367;48.714;8.994;2022-09-30T03:02:19;7.80;1.00
6662;DHT22;3367;48.714;8.994;2022-09-30T03:04:49;7.90;1.00
6662;DHT22;3367;48.714;8.994;2022-09-30T03:07:16;7.90;1.00
6662;DHT22;3367;48.714;8.994;2022-09-30T03:09:43;7.90;1.00
6662;DHT22;3367;48.714;8.994;2022-09-30T03:12:19;7.90;1.00
6662;DHT22;3367;48.714;8.994;2022-09-30T03:15:15;8.00;1.00
6662;DHT22;3367;48.714;8.994;2022-09-30T03:17:58;8.00;1.00
6662;DHT22;3367;48.714;8.994;2022-09-30T03:20:43;8.00;1.00
6662;DHT22;3367;48.714;8.994;2022-09-30T03:23:23;8.00;1.00
6662;DHT22;3367;48.714;8.994;2022-09-30T03:25:59;8.00;1.00
6662;DHT22;3367;48.714;8.994;2022-09-30T03:28:35;7.80;1.00
6662;DHT22;3367;48.714;8.994;2022-09-30T03:31:15;8.00;1.00
6662;DHT22;3367;48.714;8.994;2022-09-30T03:33:51;7.90;1.00
6662;DHT22;3367;48.714;8.994;2022-09-30T03:36:24;7.80;1.00
6662;DHT22;3367;48.714;8.994;2022-09-30T03:38:59;7.80;1.00
6662;DHT22;3367;48.714;8.994;2022-09-30T03:41:31;7.80;1.00
6662;DHT22;3367;48.714;8.994;2022-09-30T03:44:06;7.70;1.00
6662;DHT22;3367;48.714;8.994;2022-09-30T03:46:37;7.70;1.00
6662;DHT22;3367;48.714;8.994;2022-09-30T03:49:10;7.60;1.00
6662;DHT22;3367;48.714;8.994;2022-09-30T03:51:40;7.60;1.00
6662;DHT22;3367;48.714;8.994;2022-09-30T03:54:08;7.60;1.00
6662;DHT22;3367;48.714;8.994;2022-09-30T03:56:36;7.50;1.00
6662;DHT22;3367;48.714;8.994;2022-09-30T03:59:09;7.70;1.00
6662;DHT22;3367;48.714;8.994;2022-09-30T04:01:36;7.60;1.00
6662;DHT22;3367;48.714;8.994;2022-09-30T04:04:04;7.60;1.00
6662;DHT22;3367;48.714;8.994;2022-09-30T04:06:31;7.50;1.00
6662;DHT22;3367;48.714;8.994;2022-09-30T04:08:59;7.50;1.00
6662;DHT22;3367;48.714;8.994;2022-09-30T04:11:26;7.60;1.00
6662;DHT22;3367;48.714;8.994;2022-09-30T04:13:53;7.60;1.00
6662;DHT22;3367;48.714;8.994;2022-09-30T04:16:20;7.70;1.00
6662;DHT22;3367;48.714;8.994;2022-09-30T04:18:47;7.60;1.00
6662;DHT22;3367;48.714;8.994;2022-09-30T04:21:14;7.60;1.00
6662;DHT22;3367;48.714;8.994;2022-09-30T04:23:42;7.60;1.00
6662;DHT22;3367;48.714;8.994;2022-09-30T04:26:12;7.60;1.00
6662;DHT22;3367;48.714;8.994;2022-09-30T04:28:40;7.70;1.00
6662;DHT22;3367;48.714;8.994;2022-09-30T04:31:08;7.60;1.00
6662;DHT22;3367;48.714;8.994;2022-09-30T04:33:36;7.60;1.00
6662;DHT22;3367;48.714;8.994;2022-09-30T04:36:04;7.60;1.00
6662;DHT22;3367;48.714;8.994;2022-09-30T04:38:31;7.60;1.00
6662;DHT22;3367;48.714;8.994;2022-09-30T04:41:01;7.60;1.00
6662;DHT22;3367;48.714;8.994;2022-09-30T04:43:31;7.60;1.00
6662;DHT22;3367;48.714;8.994;2022-09-30T04:45:59;7.70;1.00
6662;DHT22;3367;48.714;8.994;2022-09-30T04:48:26;7.70;1.00
6662;DHT22;3367;48.714;8.994;2022-09-30T04:50:57;7.60;1.00
6662;DHT22;3367;48.714;8.994;2022-09-30T04:53:25;7.60;1.00
6662;DHT22;3367;48.714;8.994;2022-09-30T04:55:57;7.50;1.00
6662;DHT22;3367;48.714;8.994;2022-09-30T04:58:24;7.60;1.00
6662;DHT22;3367;48.714;8.994;2022-09-30T05:00:59;7.50;1.00
6662;DHT22;3367;48.714;8.994;2022-09-30T05:03:26;7.50;1.00
6662;DHT22;3367;48.714;8.994;2022-09-30T05:05:53;7.50;1.00
6662;DHT22;3367;48.714;8.994;2022-09-30T05:08:20;7.50;1.00
6662;DHT22;3367;48.714;8.994;2022-09-30T05:10:53;7.40;1.00
6662;DHT22;3367;48.714;8.994;2022-09-30T05:13:22;7.40;1.00
6662;DHT22;3367;48.714;8.994;2022-09-30T05:15:53;7.50;1.00
6662;DHT22;3367;48.714;8.994;2022-09-30T05:18:20;7.60;1.00
6662;DHT22;3367;48.714;8.994;2022-09-30T05:20:50;7.50;1.00
6662;DHT22;3367;48.714;8.994;2022-09-30T05:23:18;7.50;1.00
6662;DHT22;3367;48.714;8.994;2022-09-30T05:25:55;7.60;1.00
6662;DHT22;3367;48.714;8.994;2022-09-30T05:28:22;7.60;1.00
6662;DHT22;3367;48.714;8.994;2022-09-30T05:30:55;7.60;1.00
6662;DHT22;3367;48.714;8.994;2022-09-30T05:33:24;7.60;1.00
6662;DHT22;3367;48.714;8.994;2022-09-30T05:35:51;7.70;1.00
6662;DHT22;3367;48.714;8.994;2022-09-30T05:38:18;7.70;1.00
6662;DHT22;3367;48.714;8.994;2022-09-30T05:40:45;7.70;1.00
6662;DHT22;3367;48.714;8.994;2022-09-30T05:43:12;7.70;1.00
6662;DHT22;3367;48.714;8.994;2022-09-30T05:45:39;7.80;99.90
6662;DHT22;3367;48.714;8.994;2022-09-30T05:48:08;7.80;99.90
6662;DHT22;3367;48.714;8.994;2022-09-30T05:50:35;7.90;99.90
6662;DHT22;3367;48.714;8.994;2022-09-30T05:53:02;7.90;88.20
6662;DHT22;3367;48.714;8.994;2022-09-30T05:55:29;8.00;8.40
6662;DHT22;3367;48.714;8.994;2022-09-30T05:57:57;8.00;1.00
6662;DHT22;3367;48.714;8.994;2022-09-30T06:00:24;8.00;1.00
6662;DHT22;3367;48.714;8.994;2022-09-30T06:02:52;8.10;1.00
6662;DHT22;3367;48.714;8.994;2022-09-30T06:05:20;8.20;1.00
6662;DHT22;3367;48.714;8.994;2022-09-30T06:07:48;8.20;1.00
6662;DHT22;3367;48.714;8.994;2022-09-30T06:10:15;8.30;1.00
6662;DHT22;3367;48.714;8.994;2022-09-30T06:12:43;8.40;1.00
6662;DHT22;3367;48.714;8.994;2022-09-30T06:15:10;8.60;1.00
6662;DHT22;3367;48.714;8.994;2022-09-30T06:17:37;8.50;99.90
6662;DHT22;3367;48.714;8.994;2022-09-30T06:20:08;8.60;35.90
6662;DHT22;3367;48.714;8.994;2022-09-30T06:22:36;8.60;1.00
6662;DHT22;3367;48.714;8.994;2022-09-30T06:25:04;8.70;1.00
6662;DHT22;3367;48.714;8.994;2022-09-30T06:27:32;8.80;1.00
6662;DHT22;3367;48.714;8.994;2022-09-30T06:29:59;8.90;1.00
6662;DHT22;3367;48.714;8.994;2022-09-30T06:32:26;8.90;1.00
6662;DHT22;3367;48.714;8.994;2022-09-30T06:34:55;9.00;99.90
6662;DHT22;3367;48.714;8.994;2022-09-30T06:37:27;9.10;99.90
6662;DHT22;3367;48.714;8.994;2022-09-30T06:39:56;9.20;99.90
6662;DHT22;3367;48.714;8.994;2022-09-30T06:42:23;9.30;1.00
6662;DHT22;3367;48.714;8.994;2022-09-30T06:44:51;9.40;1.00
6662;DHT22;3367;48.714;8.994;2022-09-30T06:47:18;9.30;1.00
6662;DHT22;3367;48.714;8.994;2022-09-30T06:49:45;9.30;1.00
6662;DHT22;3367;48.714;8.994;2022-09-30T06:52:12;9.40;1.00
6662;DHT22;3367;48.714;8.994;2022-09-30T06:54:39;9.30;1.00
6662;DHT22;3367;48.714;8.994;2022-09-30T06:57:09;9.50;1.00
6662;DHT22;3367;48.714;8.994;2022-09-30T06:59:36;9.40;1.00
6662;DHT22;3367;48.714;8.994;2022-09-30T07:02:03;9.50;1.00
6662;DHT22;3367;48.714;8.994;2022-09-30T07:04:30;9.50;1.00
6662;DHT22;3367;48.714;8.994;2022-09-30T07:06:57;9.40;1.00
6662;DHT22;3367;48.714;8.994;2022-09-30T07:09:24;9.30;1.00
6662;DHT22;3367;48.714;8.994;2022-09-30T07:11:51;9.40;1.00
6662;DHT22;3367;48.714;8.994;2022-09-30T07:14:19;9.60;1.00
6662;DHT22;3367;48.714;8.994;2022-09-30T07:16:48;9.50;1.00
6662;DHT22;3367;48.714;8.994;2022-09-30T07:19:17;9.50;1.00
6662;DHT22;3367;48.714;8.994;2022-09-30T07:21:47;9.60;1.00
6662;DHT22;3367;48.714;8.994;2022-09-30T07:24:16;9.60;1.00
6662;DHT22;3367;48.714;8.994;2022-09-30T07:26:43;9.60;99.90
6662;DHT22;3367;48.714;8.994;2022-09-30T07:29:11;9.70;99.90
6662;DHT22;3367;48.714;8.994;2022-09-30T07:31:39;9.90;33.40
6662;DHT22;3367;48.714;8.994;2022-09-30T07:34:08;10.00;1.00
6662;DHT22;3367;48.714;8.994;2022-09-30T07:36:36;10.00;1.00
6662;DHT22;3367;48.714;8.994;2022-09-30T07:39:04;10.00;1.00
6662;DHT22;3367;48.714;8.994;2022-09-30T07:41:33;10.00;1.00
6662;DHT22;3367;48.714;8.994;2022-09-30T07:44:01;10.10;1.00
6662;DHT22;3367;48.714;8.994;2022-09-30T07:46:30;10.20;1.00
6662;DHT22;3367;48.714;8.994;2022-09-30T07:49:00;10.40;99.90
6662;DHT22;3367;48.714;8.994;2022-09-30T07:51:30;10.30;1.00
6662;DHT22;3367;48.714;8.994;2022-09-30T07:53:59;10.50;1.00
6662;DHT22;3367;48.714;8.994;2022-09-30T07:56:27;10.50;1.00
6662;DHT22;3367;48.714;8.994;2022-09-30T07:58:56;10.60;1.00
6662;DHT22;3367;48.714;8.994;2022-09-30T08:01:25;10.60;1.00
6662;DHT22;3367;48.714;8.994;2022-09-30T08:03:54;10.80;99.90
6662;DHT22;3367;48.714;8.994;2022-09-30T08:06:23;11.00;99.90
6662;DHT22;3367;48.714;8.994;2022-09-30T08:08:52;11.10;99.90
6662;DHT22;3367;48.714;8.994;2022-09-30T08:11:20;11.20;99.90
6662;DHT22;3367;48.714;8.994;2022-09-30T08:13:49;11.10;99.90
6662;DHT22;3367;48.714;8.994;2022-09-30T08:16:17;11.10;99.90
6662;DHT22;3367;48.714;8.994;2022-09-30T08:18:44;11.20;99.90
6662;DHT22;3367;48.714;8.994;2022-09-30T08:21:11;11.40;1.00
6662;DHT22;3367;48.714;8.994;2022-09-30T08:23:40;11.40;1.00
6662;DHT22;3367;48.714;8.994;2022-09-30T08:26:08;11.60;1.00
6662;DHT22;3367;48.714;8.994;2022-09-30T08:28:36;11.50;1.00
6662;DHT22;3367;48.714;8.994;2022-09-30T08:31:04;11.60;1.00
6662;DHT22;3367;48.714;8.994;2022-09-30T08:33:32;11.60;1.00
6662;DHT22;3367;48.714;8.994;2022-09-30T08:36:03;11.60;1.00
6662;DHT22;3367;48.714;8.994;2022-09-30T08:38:31;11.70;1.00
6662;DHT22;3367;48.714;8.994;2022-09-30T08:41:08;11.90;1.00
6662;DHT22;3367;48.714;8.994;2022-09-30T08:43:49;11.90;1.00
6662;DHT22;3367;48.714;8.994;2022-09-30T08:46:45;12.20;99.90
6662;DHT22;3367;48.714;8.994;2022-09-30T08:49:24;12.30;99.90
6662;DHT22;3367;48.714;8.994;2022-09-30T08:51:53;12.40;99.90
6662;DHT22;3367;48.714;8.994;2022-09-30T08:54:23;12.60;99.90
6662;DHT22;3367;48.714;8.994;2022-09-30T08:56:54;12.80;1.00
6662;DHT22;3367;48.714;8.994;2022-09-30T08:59:28;12.70;1.00
6662;DHT22;3367;48.714;8.994;2022-09-30T09:02:01;12.90;1.00
6662;DHT22;3367;48.714;8.994;2022-09-30T09:04:30;12.80;1.00
6662;DHT22;3367;48.714;8.994;2022-09-30T09:07:03;13.00;1.00
6662;DHT22;3367;48.714;8.994;2022-09-30T09:09:47;13.00;1.00
6662;DHT22;3367;48.714;8.994;2022-09-30T09:12:27;13.30;1.00
6662;DHT22;3367;48.714;8.994;2022-09-30T09:15:17;13.50;1.00
6662;DHT22;3367;48.714;8.994;2022-09-30T09:18:01;13.50;1.00
6662;DHT22;3367;48.714;8.994;2022-09-30T09:20:32;13.00;1.00
6662;DHT22;3367;48.714;8.994;2022-09-30T09:23:02;13.00;1.00
6662;DHT22;3367;48.714;8.994;2022-09-30T09:25:30;12.90;1.00
6662;DHT22;3367;48.714;8.994;2022-09-30T09:28:01;12.90;1.00
6662;DHT22;3367;48.714;8.994;2022-09-30T09:30:35;12.80;1.00
6662;DHT22;3367;48.714;8.994;2022-09-30T09:33:14;13.00;1.00
6662;DHT22;3367;48.714;8.994;2022-09-30T09:35:46;13.20;1.00
6662;DHT22;3367;48.714;8.994;2022-09-30T09:38:22;13.10;1.00
6662;DHT22;3367;48.714;8.994;2022-09-30T09:41:00;13.10;1.00
6662;DHT22;3367;48.714;8.994;2022-09-30T09:43:44;13.20;1.00
6662;DHT22;3367;48.714;8.994;2022-09-30T09:46:21;13.30;1.00
6662;DHT22;3367;48.714;8.994;2022-09-30T09:49:25;13.50;1.00
6662;DHT22;3367;48.714;8.994;2022-09-30T09:54:40;14.10;99.90
6662;DHT22;3367;48.714;8.994;2022-09-30T09:57:09;13.90;99.90
6662;DHT22;3367;48.714;8.994;2022-09-30T09:59:39;14.10;99.90
6662;DHT22;3367;48.714;8.994;2022-09-30T10:02:22;14.10;99.90
6662;DHT22;3367;48.714;8.994;2022-09-30T10:04:51;14.00;1.00
6662;DHT22;3367;48.714;8.994;2022-09-30T10:07:25;14.10;1.00
6662;DHT22;3367;48.714;8.994;2022-09-30T10:10:07;14.30;1.00
6662;DHT22;3367;48.714;8.994;2022-09-30T10:12:34;14.50;1.00
6662;DHT22;3367;48.714;8.994;2022-09-30T10:15:12;14.50;1.00
6662;DHT22;3367;48.714;8.994;2022-09-30T10:17:41;14.50;1.00
6662;DHT22;3367;48.714;8.994;2022-09-30T10:20:20;14.60;1.00
6662;DHT22;3367;48.714;8.994;2022-09-30T10:22:48;14.50;1.00
6662;DHT22;3367;48.714;8.994;2022-09-30T10:25:20;14.50;1.00
6662;DHT22;3367;48.714;8.994;2022-09-30T10:27:50;14.60;1.00
6662;DHT22;3367;48.714;8.994;2022-09-30T10:30:35;14.90;1.00
6662;DHT22;3367;48.714;8.994;2022-09-30T10:33:11;15.10;1.00
6662;DHT22;3367;48.714;8.994;2022-09-30T10:35:52;15.10;1.00
6662;DHT22;3367;48.714;8.994;2022-09-30T10:38:21;15.30;1.00
6662;DHT22;3367;48.714;8.994;2022-09-30T10:40:49;15.30;1.00
6662;DHT22;3367;48.714;8.994;2022-09-30T10:43:20;15.20;1.00
6662;DHT22;3367;48.714;8.994;2022-09-30T10:45:50;15.20;1.00
6662;DHT22;3367;48.714;8.994;2022-09-30T10:48:21;15.10;1.00
6662;DHT22;3367;48.714;8.994;2022-09-30T10:50:52;14.80;1.00
6662;DHT22;3367;48.714;8.994;2022-09-30T10:53:21;14.50;1.00
6662;DHT22;3367;48.714;8.994;2022-09-30T10:55:49;14.40;1.00
6662;DHT22;3367;48.714;8.994;2022-09-30T10:58:28;14.30;1.00
6662;DHT22;3367;48.714;8.994;2022-09-30T11:01:02;14.20;1.00
6662;DHT22;3367;48.714;8.994;2022-09-30T11:03:38;14.30;1.00
6662;DHT22;3367;48.714;8.994;2022-09-30T11:06:06;14.30;1.00
6662;DHT22;3367;48.714;8.994;2022-09-30T11:08:43;14.20;1.00
6662;DHT22;3367;48.714;8.994;2022-09-30T11:11:11;14.20;1.00
6662;DHT22;3367;48.714;8.994;2022-09-30T11:13:42;14.10;1.00
6662;DHT22;3367;48.714;8.994;2022-09-30T11:16:17;14.30;1.00
6662;DHT22;3367;48.714;8.994;2022-09-30T11:18:51;14.70;1.00
6662;DHT22;3367;48.714;8.994;2022-09-30T11:21:21;15.10;1.00
6662;DHT22;3367;48.714;8.994;2022-09-30T11:23:54;15.40;1.00
6662;DHT22;3367;48.714;8.994;2022-09-30T11:26:33;15.60;1.00
6662;DHT22;3367;48.714;8.994;2022-09-30T11:29:20;15.70;1.00
6662;DHT22;3367;48.714;8.994;2022-09-30T11:31:56;15.60;1.00
6662;DHT22;3367;48.714;8.994;2022-09-30T11:34:36;15.40;1.00
6662;DHT22;3367;48.714;8.994;2022-09-30T11:37:14;15.10;1.00
6662;DHT22;3367;48.714;8.994;2022-09-30T11:40:12;15.40;1.00
6662;DHT22;3367;48.714;8.994;2022-09-30T11:42:46;15.60;1.00
6662;DHT22;3367;48.714;8.994;2022-09-30T11:45:24;15.60;1.00
6662;DHT22;3367;48.714;8.994;2022-09-30T11:48:12;15.40;1.00
6662;DHT22;3367;48.714;8.994;2022-09-30T11:50:50;15.30;1.00
6662;DHT22;3367;48.714;8.994;2022-09-30T11:53:24;15.30;1.00
6662;DHT22;3367;48.714;8.994;2022-09-30T11:56:02;15.50;1.00
6662;DHT22;3367;48.714;8.994;2022-09-30T11:58:35;15.60;1.00
6662;DHT22;3367;48.714;8.994;2022-09-30T12:01:13;15.60;1.00
6662;DHT22;3367;48.714;8.994;2022-09-30T12:03:47;15.60;1.00
6662;DHT22;3367;48.714;8.994;2022-09-30T12:06:27;15.70;1.00
6662;DHT22;3367;48.714;8.994;2022-09-30T12:09:00;16.00;1.00
6662;DHT22;3367;48.714;8.994;2022-09-30T12:11:35;16.00;1.00
6662;DHT22;3367;48.714;8.994;2022-09-30T12:14:11;16.20;1.00
6662;DHT22;3367;48.714;8.994;2022-09-30T12:16:38;16.00;1.00
6662;DHT22;3367;48.714;8.994;2022-09-30T12:19:14;15.80;1.00
6662;DHT22;3367;48.714;8.994;2022-09-30T12:21:47;15.90;1.00
6662;DHT22;3367;48.714;8.994;2022-09-30T12:24:21;15.90;1.00
6662;DHT22;3367;48.714;8.994;2022-09-30T12:26:50;15.90;1.00
6662;DHT22;3367;48.714;8.994;2022-09-30T12:29:21;15.70;1.00
6662;DHT22;3367;48.714;8.994;2022-09-30T12:32:34;15.90;1.00
6662;DHT22;3367;48.714;8.994;2022-09-30T12:35:23;15.90;1.00
6662;DHT22;3367;48.714;8.994;2022-09-30T12:38:06;15.80;1.00
6662;DHT22;3367;48.714;8.994;2022-09-30T12:40:49;15.50;1.00
6662;DHT22;3367;48.714;8.994;2022-09-30T12:46:23;15.10;1.00
6662;DHT22;3367;48.714;8.994;2022-09-30T12:48:54;15.00;1.00
6662;DHT22;3367;48.714;8.994;2022-09-30T12:51:29;15.00;1.00
6662;DHT22;3367;48.714;8.994;2022-09-30T12:53:59;15.00;1.00
6662;DHT22;3367;48.714;8.994;2022-09-30T12:56:29;15.10;1.00
6662;DHT22;3367;48.714;8.994;2022-09-30T12:58:57;15.00;1.00
6662;DHT22;3367;48.714;8.994;2022-09-30T13:01:27;14.90;1.00
6662;DHT22;3367;48.714;8.994;2022-09-30T13:04:29;15.00;1.00
6662;DHT22;3367;48.714;8.994;2022-09-30T13:07:17;14.90;1.00
6662;DHT22;3367;48.714;8.994;2022-09-30T13:10:01;14.80;1.00
6662;DHT22;3367;48.714;8.994;2022-09-30T13:13:13;14.80;1.00
6662;DHT22;3367;48.714;8.994;2022-09-30T13:15:42;14.70;1.00
6662;DHT22;3367;48.714;8.994;2022-09-30T13:21:22;14.80;1.00
6662;DHT22;3367;48.714;8.994;2022-09-30T13:23:52;14.90;1.00
6662;DHT22;3367;48.714;8.994;2022-09-30T13:26:44;14.90;1.00
6662;DHT22;3367;48.714;8.994;2022-09-30T13:29:35;14.90;1.00
6662;DHT22;3367;48.714;8.994;2022-09-30T13:32:08;14.80;1.00
6662;DHT22;3367;48.714;8.994;2022-09-30T13:34:53;14.80;1.00
6662;DHT22;3367;48.714;8.994;2022-09-30T13:37:38;14.80;1.00
6662;DHT22;3367;48.714;8.994;2022-09-30T13:40:19;14.80;1.00
6662;DHT22;3367;48.714;8.994;2022-09-30T13:42:51;14.90;1.00
6662;DHT22;3367;48.714;8.994;2022-09-30T13:45:28;14.90;1.00
6662;DHT22;3367;48.714;8.994;2022-09-30T13:48:04;14.90;1.00
6662;DHT22;3367;48.714;8.994;2022-09-30T13:50:39;15.00;1.00
6662;DHT22;3367;48.714;8.994;2022-09-30T13:53:20;14.90;1.00
6662;DHT22;3367;48.714;8.994;2022-09-30T13:55:50;15.00;1.00
6662;DHT22;3367;48.714;8.994;2022-09-30T13:58:42;15.00;1.00
6662;DHT22;3367;48.714;8.994;2022-09-30T14:01:17;15.20;1.00
6662;DHT22;3367;48.714;8.994;2022-09-30T14:04:10;15.40;1.00
6662;DHT22;3367;48.714;8.994;2022-09-30T14:06:47;15.50;1.00
6662;DHT22;3367;48.714;8.994;2022-09-30T14:09:36;15.60;1.00
6662;DHT22;3367;48.714;8.994;2022-09-30T14:12:33;15.50;1.00
6662;DHT22;3367;48.714;8.994;2022-09-30T14:18:36;15.60;1.00
6662;DHT22;3367;48.714;8.994;2022-09-30T14:21:32;15.80;1.00
6662;DHT22;3367;48.714;8.994;2022-09-30T14:24:02;15.80;1.00
6662;DHT22;3367;48.714;8.994;2022-09-30T14:26:43;16.00;1.00
6662;DHT22;3367;48.714;8.994;2022-09-30T14:29:21;15.90;1.00
6662;DHT22;3367;48.714;8.994;2022-09-30T14:31:51;16.00;1.00
6662;DHT22;3367;48.714;8.994;2022-09-30T14:34:21;16.00;1.00
6662;DHT22;3367;48.714;8.994;2022-09-30T14:36:50;15.80;1.00
6662;DHT22;3367;48.714;8.994;2022-09-30T14:39:19;16.00;1.00
6662;DHT22;3367;48.714;8.994;2022-09-30T14:41:50;15.90;1.00
6662;DHT22;3367;48.714;8.994;2022-09-30T14:44:19;15.80;1.00
6662;DHT22;3367;48.714;8.994;2022-09-30T14:46:48;15.80;1.00
6662;DHT22;3367;48.714;8.994;2022-09-30T14:49:17;15.90;1.00
6662;DHT22;3367;48.714;8.994;2022-09-30T14:51:47;16.00;1.00
6662;DHT22;3367;48.714;8.994;2022-09-30T14:54:16;15.80;1.00
6662;DHT22;3367;48.714;8.994;2022-09-30T14:56:43;15.60;1.00
6662;DHT22;3367;48.714;8.994;2022-09-30T14:59:19;15.60;1.00
6662;DHT22;3367;48.714;8.994;2022-09-30T15:01:49;15.60;1.00
6662;DHT22;3367;48.714;8.994;2022-09-30T15:04:23;15.40;1.00
6662;DHT22;3367;48.714;8.994;2022-09-30T15:06:51;15.40;1.00
6662;DHT22;3367;48.714;8.994;2022-09-30T15:09:22;15.30;1.00
6662;DHT22;3367;48.714;8.994;2022-09-30T15:11:50;15.30;1.00
6662;DHT22;3367;48.714;8.994;2022-09-30T15:14:19;15.40;1.00
6662;DHT22;3367;48.714;8.994;2022-09-30T15:16:48;15.30;1.00
6662;DHT22;3367;48.714;8.994;2022-09-30T15:19:20;15.20;1.00
6662;DHT22;3367;48.714;8.994;2022-09-30T15:21:47;15.20;1.00
6662;DHT22;3367;48.714;8.994;2022-09-30T15:24:16;15.10;1.00
6662;DHT22;3367;48.714;8.994;2022-09-30T15:26:44;15.20;1.00
6662;DHT22;3367;48.714;8.994;2022-09-30T15:29:14;15.00;1.00
6662;DHT22;3367;48.714;8.994;2022-09-30T15:31:44;14.90;1.00
6662;DHT22;3367;48.714;8.994;2022-09-30T15:34:14;14.80;1.00
6662;DHT22;3367;48.714;8.994;2022-09-30T15:36:42;14.80;1.00
6662;DHT22;3367;48.714;8.994;2022-09-30T15:39:18;14.80;1.00
6662;DHT22;3367;48.714;8.994;2022-09-30T15:41:47;14.80;1.00
6662;DHT22;3367;48.714;8.994;2022-09-30T15:44:16;14.70;1.00
6662;DHT22;3367;48.714;8.994;2022-09-30T15:49:46;14.50;1.00
6662;DHT22;3367;48.714;8.994;2022-09-30T15:52:26;14.30;1.00
6662;DHT22;3367;48.714;8.994;2022-09-30T15:54:54;14.30;1.00
6662;DHT22;3367;48.714;8.994;2022-09-30T15:57:43;14.20;1.00
6662;DHT22;3367;48.714;8.994;2022-09-30T16:00:33;14.20;1.00
6662;DHT22;3367;48.714;8.994;2022-09-30T16:03:12;14.10;1.00
6662;DHT22;3367;48.714;8.994;2022-09-30T16:05:42;14.10;1.00
6662;DHT22;3367;48.714;8.994;2022-09-30T16:08:12;14.10;1.00
6662;DHT22;3367;48.714;8.994;2022-09-30T16:10:48;14.00;1.00
6662;DHT22;3367;48.714;8.994;2022-09-30T16:13:16;14.00;1.00
6662;DHT22;3367;48.714;8.994;2022-09-30T16:15:44;13.90;1.00
6662;DHT22;3367;48.714;8.994;2022-09-30T16:18:16;13.90;1.00
6662;DHT22;3367;48.714;8.994;2022-09-30T16:20:57;13.80;1.00
6662;DHT22;3367;48.714;8.994;2022-09-30T16:23:29;13.70;1.00
6662;DHT22;3367;48.714;8.994;2022-09-30T16:26:17;13.70;1.00
6662;DHT22;3367;48.714;8.994;2022-09-30T16:28:45;13.60;1.00
6662;DHT22;3367;48.714;8.994;2022-09-30T16:31:12;13.50;1.00
6662;DHT22;3367;48.714;8.994;2022-09-30T16:33:41;13.50;1.00
6662;DHT22;3367;48.714;8.994;2022-09-30T16:36:10;13.40;1.00
6662;DHT22;3367;48.714;8.994;2022-09-30T16:38:37;13.30;1.00
6662;DHT22;3367;48.714;8.994;2022-09-30T16:41:04;13.20;1.00
6662;DHT22;3367;48.714;8.994;2022-09-30T16:43:31;13.10;1.00
6662;DHT22;3367;48.714;8.994;2022-09-30T16:45:58;13.10;1.00
6662;DHT22;3367;48.714;8.994;2022-09-30T16:48:25;13.00;1.00
6662;DHT22;3367;48.714;8.994;2022-09-30T16:50:56;12.90;1.00
6662;DHT22;3367;48.714;8.994;2022-09-30T16:53:27;12.70;1.00
6662;DHT22;3367;48.714;8.994;2022-09-30T16:55:54;12.60;1.00
6662;DHT22;3367;48.714;8.994;2022-09-30T16:58:21;12.50;1.00
6662;DHT22;3367;48.714;8.994;2022-09-30T17:00:48;12.40;1.00
6662;DHT22;3367;48.714;8.994;2022-09-30T17:03:16;12.20;1.00
6662;DHT22;3367;48.714;8.994;2022-09-30T17:05:44;12.10;1.00
6662;DHT22;3367;48.714;8.994;2022-09-30T17:08:18;11.90;7.60
6662;DHT22;3367;48.714;8.994;2022-09-30T17:10:47;11.90;99.90
6662;DHT22;3367;48.714;8.994;2022-09-30T17:13:15;11.70;99.90
6662;DHT22;3367;48.714;8.994;2022-09-30T17:15:45;11.60;99.90